Aviation Digital Data Service (ADDS)

Output produced by METARs form (1252 UTC 16 July 2019)
found at http://www.aviationweather.gov/metar/data/
 
NZAA 161230Z AUTO 36005KT 300V030 9999 SCT035/// BKN046/// 12/09 Q0996 BECMG 27015G25KT TEMPO 4000 +RA FEW020CB
TAF NZAA 161101Z 1612/1712 32012KT 9999 -SHRA FEW025 SCT035 
     BECMG 1613/1615 27015G25KT 
     TEMPO 1613/1617 4000 +RA FEW020CB 
     TEMPO 1617/1702 6000 SHRA FEW020TCU 
     TEMPO 1705/1710 5000 SHRA FEW020TCU 
     BECMG 1708/1710 27012KT
       
NZCH 161230Z AUTO 25003KT 8000 BKN003/// 05/04 Q0985 TEMPO 0500 FG TEMPO SCT004
TAF NZCH 161101Z 1612/1712 VRB02KT 9999 FEW004 
     TEMPO 1612/1615 0500 FG BKN004 
     FM161500 24010KT 9999 -SHRA BKN006 BKN035 
     BECMG 1623/1701 22015G25KT FEW010 BKN030 
     BECMG 1705/1707 22005KT
       
NZWN 161230Z AUTO 34013KT 320V030 9999 VCSH SCT025/// SCT035/// BKN048/// 12/07 Q0988 TEMPO 4000 RA
TAF NZWN 161100Z 1612/1712 35020G30KT 9999 -SHRA BKN025 
     TEMPO 1612/1618 4000 RA FEW020TCU 
     BECMG 1622/1700 33015KT 
     BECMG 1708/1710 20010KT 
     TEMPO 1708/1711 6000 SHRA